Time;durP1;ratioP1;P1;durP2;ratioP2;P2;SDS_P1;SDS_P2;PMS_P1;PMS_P2;Temp;Humidity;BMP_temperature;BMP_pressure;BME280_temperature;BME280_humidity;BME280_pressure;Samples;Min_cycle;Max_cycle;Signal;HPM_P1;HPM_P2
2023/11/18 00:00:58;;;;;;;;;;;12.70;99.90;;;;;;5019748;28;19961;-74
2023/11/18 00:03:24;;;;;;;;;;;12.70;99.90;;;;;;5028565;28;20331;-79
2023/11/18 00:05:50;;;;;;;;;;;12.70;99.90;;;;;;5013339;28;20003;-75
2023/11/18 00:08:15;;;;;;;;;;;12.80;99.90;;;;;;5013613;28;19991;-79
2023/11/18 00:10:40;;;;;;;;;;;12.80;99.90;;;;;;5013536;28;19909;-79
2023/11/18 00:13:06;;;;;;;;;;;12.80;99.90;;;;;;5013019;28;19956;-74
2023/11/18 00:15:34;;;;;;;;;;;12.80;99.90;;;;;;5013380;28;19917;-74
2023/11/18 00:18:00;;;;;;;;;;;12.80;99.90;;;;;;5013327;28;19913;-74
2023/11/18 00:20:25;;;;;;;;;;;12.70;99.90;;;;;;5028171;28;20344;-78
2023/11/18 00:22:55;;;;;;;;;;;12.70;99.90;;;;;;5013450;28;19909;-80
2023/11/18 00:25:20;;;;;;;;;;;12.70;99.90;;;;;;5013229;28;19916;-74
2023/11/18 00:27:46;;;;;;;;;;;12.60;99.90;;;;;;5013207;28;19948;-74
2023/11/18 00:30:12;;;;;;;;;;;12.60;99.90;;;;;;5012998;28;19956;-74
2023/11/18 00:32:38;;;;;;;;;;;12.60;99.90;;;;;;5012816;28;19909;-79
2023/11/18 00:35:06;;;;;;;;;;;12.50;99.90;;;;;;5013174;28;19914;-79
2023/11/18 00:37:33;;;;;;;;;;;12.50;99.90;;;;;;5013083;28;19917;-75
2023/11/18 00:39:58;;;;;;;;;;;12.50;99.90;;;;;;5013164;28;20047;-79
2023/11/18 00:42:23;;;;;;;;;;;12.50;99.90;;;;;;5013293;28;19955;-74
2023/11/18 00:44:49;;;;;;;;;;;12.40;99.90;;;;;;5013061;28;19960;-74
2023/11/18 00:47:14;;;;;;;;;;;12.40;99.90;;;;;;5013458;28;19909;-79
2023/11/18 00:49:40;;;;;;;;;;;12.40;99.90;;;;;;5012717;28;20324;-79
2023/11/18 00:52:06;;;;;;;;;;;12.40;99.90;;;;;;5012904;28;19919;-75
2023/11/18 00:54:31;;;;;;;;;;;12.40;99.90;;;;;;5011383;28;19914;-75
2023/11/18 00:56:57;;;;;;;;;;;12.40;99.90;;;;;;5011970;28;19910;-79
2023/11/18 00:59:22;;;;;;;;;;;12.40;99.90;;;;;;4997524;28;19957;-79
2023/11/18 01:01:49;;;;;;;;;;;12.30;99.90;;;;;;5015571;28;19913;-78
2023/11/18 01:04:14;;;;;;;;;;;12.30;99.90;;;;;;5016724;28;19910;-74
2023/11/18 01:06:42;;;;;;;;;;;12.30;99.90;;;;;;5016540;28;20426;-79
2023/11/18 01:09:09;;;;;;;;;;;12.30;99.90;;;;;;5016132;28;19917;-74
2023/11/18 01:11:35;;;;;;;;;;;12.30;99.90;;;;;;5016463;28;19916;-78
2023/11/18 01:14:01;;;;;;;;;;;12.30;99.90;;;;;;5015274;28;19916;-80
2023/11/18 01:16:28;;;;;;;;;;;12.30;99.90;;;;;;5015826;28;20000;-74
2023/11/18 01:18:54;;;;;;;;;;;12.30;99.90;;;;;;5016256;28;19956;-75
2023/11/18 01:21:19;;;;;;;;;;;12.40;99.90;;;;;;5016261;28;19988;-74
2023/11/18 01:23:45;;;;;;;;;;;12.40;99.90;;;;;;5016338;28;19936;-74
2023/11/18 01:26:12;;;;;;;;;;;12.40;99.90;;;;;;5015241;28;20368;-79
2023/11/18 01:28:41;;;;;;;;;;;12.40;99.90;;;;;;5030648;28;19910;-78
2023/11/18 01:31:10;;;;;;;;;;;12.40;99.90;;;;;;5015566;28;20024;-74
2023/11/18 01:33:44;;;;;;;;;;;12.30;99.90;;;;;;5016201;28;20411;-74
2023/11/18 01:36:10;;;;;;;;;;;12.40;99.90;;;;;;5015757;28;19916;-74
2023/11/18 01:38:37;;;;;;;;;;;12.30;99.90;;;;;;5015916;28;19909;-79
2023/11/18 01:41:04;;;;;;;;;;;12.30;99.90;;;;;;5015851;28;20300;-78
2023/11/18 01:43:31;;;;;;;;;;;12.40;99.90;;;;;;5016454;28;19913;-74
2023/11/18 01:46:01;;;;;;;;;;;12.40;99.90;;;;;;5015968;28;20295;-74
2023/11/18 01:48:27;;;;;;;;;;;12.40;99.90;;;;;;5016100;28;20077;-74
2023/11/18 01:50:54;;;;;;;;;;;12.50;99.90;;;;;;5015730;28;20382;-78
2023/11/18 01:53:19;;;;;;;;;;;12.50;99.90;;;;;;5012872;28;20392;-78
2023/11/18 01:55:45;;;;;;;;;;;12.50;99.90;;;;;;5011268;28;19914;-74
2023/11/18 01:58:12;;;;;;;;;;;12.50;99.90;;;;;;5014967;28;20285;-74
2023/11/18 02:00:41;;;;;;;;;;;12.50;99.90;;;;;;4998936;28;20016;-74
2023/11/18 02:03:07;;;;;;;;;;;12.40;99.90;;;;;;5015498;28;19914;-74
2023/11/18 02:05:32;;;;;;;;;;;12.40;99.90;;;;;;5015105;28;19917;-78
2023/11/18 02:08:00;;;;;;;;;;;12.40;99.90;;;;;;5015396;28;19932;-78
2023/11/18 02:10:26;;;;;;;;;;;12.30;99.90;;;;;;5015480;28;19910;-74
2023/11/18 02:13:05;;;;;;;;;;;12.30;99.90;;;;;;5015443;28;19910;-74
2023/11/18 02:15:33;;;;;;;;;;;12.30;99.90;;;;;;5015226;28;19909;-74
2023/11/18 02:18:01;;;;;;;;;;;12.30;99.90;;;;;;5014639;28;19914;-78
2023/11/18 02:20:28;;;;;;;;;;;12.20;99.90;;;;;;5014728;28;19921;-78
2023/11/18 02:22:53;;;;;;;;;;;12.20;99.90;;;;;;5015296;28;19910;-78
2023/11/18 02:25:19;;;;;;;;;;;12.30;99.90;;;;;;5015264;28;19933;-74
2023/11/18 02:27:48;;;;;;;;;;;12.30;99.90;;;;;;5015567;28;19916;-74
2023/11/18 02:30:16;;;;;;;;;;;12.30;99.90;;;;;;5014699;28;19944;-78
2023/11/18 02:32:49;;;;;;;;;;;12.30;99.90;;;;;;5014947;28;19937;-78
2023/11/18 02:35:25;;;;;;;;;;;12.30;99.90;;;;;;5015024;28;20339;-74
2023/11/18 02:37:53;;;;;;;;;;;12.30;99.90;;;;;;5014421;28;19910;-74
2023/11/18 02:40:51;;;;;;;;;;;12.30;99.90;;;;;;5014941;28;20376;-74
2023/11/18 02:43:16;;;;;;;;;;;12.30;99.90;;;;;;5010602;28;19935;-78
2023/11/18 02:45:42;;;;;;;;;;;12.30;99.90;;;;;;5029922;28;19917;-78
2023/11/18 02:48:08;;;;;;;;;;;12.30;99.90;;;;;;5015116;28;19942;-74
2023/11/18 02:50:35;;;;;;;;;;;12.30;99.90;;;;;;5014628;28;20000;-74
2023/11/18 02:53:01;;;;;;;;;;;12.20;99.90;;;;;;5013826;28;19916;-74
2023/11/18 02:55:26;;;;;;;;;;;12.20;99.90;;;;;;5011362;28;19918;-74
2023/11/18 02:57:52;;;;;;;;;;;12.20;99.90;;;;;;5005411;28;19917;-78
2023/11/18 03:00:21;;;;;;;;;;;12.30;99.90;;;;;;5013562;28;20364;-78
2023/11/18 03:02:48;;;;;;;;;;;12.30;99.90;;;;;;5003751;28;20379;-74
2023/11/18 03:05:14;;;;;;;;;;;12.40;99.90;;;;;;5013201;28;20275;-74
2023/11/18 03:07:50;;;;;;;;;;;12.40;99.90;;;;;;5014406;28;20012;-79
2023/11/18 03:10:20;;;;;;;;;;;12.40;99.90;;;;;;5014136;28;20388;-79
2023/11/18 03:12:47;;;;;;;;;;;12.40;99.90;;;;;;5014351;28;19979;-79
2023/11/18 03:15:12;;;;;;;;;;;12.40;99.90;;;;;;5014347;28;19917;-75
2023/11/18 03:17:38;;;;;;;;;;;12.40;99.90;;;;;;5013875;28;19913;-75
2023/11/18 03:20:05;;;;;;;;;;;12.40;99.90;;;;;;5013648;28;19917;-79
2023/11/18 03:22:31;;;;;;;;;;;12.40;99.90;;;;;;5014103;28;20406;-79
2023/11/18 03:24:56;;;;;;;;;;;12.40;99.90;;;;;;5014401;28;19917;-78
2023/11/18 03:27:22;;;;;;;;;;;12.40;99.90;;;;;;5012770;28;20006;-78
2023/11/18 03:29:48;;;;;;;;;;;12.40;99.90;;;;;;5014037;28;19977;-75
2023/11/18 03:32:13;;;;;;;;;;;12.50;99.90;;;;;;5013858;28;19925;-75
2023/11/18 03:34:39;;;;;;;;;;;12.50;99.90;;;;;;5013954;28;20385;-78
2023/11/18 03:37:04;;;;;;;;;;;12.50;99.90;;;;;;5013961;28;20034;-79
2023/11/18 03:39:30;;;;;;;;;;;12.50;99.90;;;;;;5013793;28;19914;-79
2023/11/18 03:41:57;;;;;;;;;;;12.50;99.90;;;;;;5014068;28;19909;-75
2023/11/18 03:44:23;;;;;;;;;;;12.50;99.90;;;;;;5013802;28;19910;-75
2023/11/18 03:46:49;;;;;;;;;;;12.50;99.90;;;;;;5014133;28;19988;-74
2023/11/18 03:49:15;;;;;;;;;;;12.50;99.90;;;;;;5014039;28;19949;-79
2023/11/18 03:51:40;;;;;;;;;;;12.50;99.90;;;;;;5013602;28;20382;-78
2023/11/18 03:54:08;;;;;;;;;;;12.50;99.90;;;;;;5010579;28;19968;-74
2023/11/18 03:56:34;;;;;;;;;;;12.50;99.90;;;;;;5013735;28;19916;-75
2023/11/18 03:58:59;;;;;;;;;;;12.50;99.90;;;;;;5009717;28;19917;-79
2023/11/18 04:01:28;;;;;;;;;;;12.50;99.90;;;;;;5012147;28;20266;-79
2023/11/18 04:03:54;;;;;;;;;;;12.50;99.90;;;;;;5013433;28;19909;-79
2023/11/18 04:06:22;;;;;;;;;;;12.50;99.90;;;;;;5013526;28;19932;-74
2023/11/18 04:08:48;;;;;;;;;;;12.40;99.90;;;;;;5013485;28;19965;-78
2023/11/18 04:11:14;;;;;;;;;;;12.40;99.90;;;;;;5013408;28;20000;-75
2023/11/18 04:13:43;;;;;;;;;;;12.40;99.90;;;;;;5013259;28;19916;-78
2023/11/18 04:16:15;;;;;;;;;;;12.40;99.90;;;;;;5012146;28;19914;-78
2023/11/18 04:18:41;;;;;;;;;;;12.40;99.90;;;;;;5028864;28;19960;-75
2023/11/18 04:21:08;;;;;;;;;;;12.40;99.90;;;;;;5013305;28;20376;-75
2023/11/18 04:23:36;;;;;;;;;;;12.30;99.90;;;;;;5013514;28;19909;-79
2023/11/18 04:26:02;;;;;;;;;;;12.30;99.90;;;;;;5013477;28;19910;-74
2023/11/18 04:28:28;;;;;;;;;;;12.30;99.90;;;;;;5015146;28;19910;-78
2023/11/18 04:30:53;;;;;;;;;;;12.30;99.90;;;;;;5017185;28;19991;-77
2023/11/18 04:33:19;;;;;;;;;;;12.20;99.90;;;;;;5017254;28;19910;-75
2023/11/18 04:35:47;;;;;;;;;;;12.30;99.90;;;;;;5017188;28;19910;-75
2023/11/18 04:38:13;;;;;;;;;;;12.30;99.90;;;;;;5017154;28;19909;-74
2023/11/18 04:40:40;;;;;;;;;;;12.30;99.90;;;;;;5017331;28;20004;-79
2023/11/18 04:43:06;;;;;;;;;;;12.30;99.90;;;;;;5017082;28;19909;-79
2023/11/18 04:45:32;;;;;;;;;;;12.30;99.90;;;;;;5016907;28;19984;-74
2023/11/18 04:47:59;;;;;;;;;;;12.30;99.90;;;;;;5017211;28;20122;-75
2023/11/18 04:50:24;;;;;;;;;;;12.30;99.90;;;;;;5017037;28;19944;-75
2023/11/18 04:52:50;;;;;;;;;;;12.30;99.90;;;;;;5016942;28;19964;-78
2023/11/18 04:55:15;;;;;;;;;;;12.30;99.90;;;;;;5008937;28;19913;-79
2023/11/18 04:57:41;;;;;;;;;;;12.30;99.90;;;;;;5014846;28;19913;-75
2023/11/18 05:00:10;;;;;;;;;;;12.30;99.90;;;;;;5016556;28;19929;-74
2023/11/18 05:02:37;;;;;;;;;;;12.20;99.90;;;;;;5015293;28;20340;-74
2023/11/18 05:05:04;;;;;;;;;;;12.20;99.90;;;;;;5016784;28;20335;-75
2023/11/18 05:07:30;;;;;;;;;;;12.30;99.90;;;;;;5016587;28;19916;-78
2023/11/18 05:09:56;;;;;;;;;;;12.20;99.90;;;;;;5017064;28;19910;-78
2023/11/18 05:12:22;;;;;;;;;;;12.30;99.90;;;;;;5016631;28;19931;-74
2023/11/18 05:14:49;;;;;;;;;;;12.30;99.90;;;;;;5016394;28;19924;-74
2023/11/18 05:17:15;;;;;;;;;;;12.30;99.90;;;;;;5016746;28;19921;-74
2023/11/18 05:19:41;;;;;;;;;;;12.30;99.90;;;;;;5016218;28;20319;-77
2023/11/18 05:22:06;;;;;;;;;;;12.30;99.90;;;;;;5021583;28;19968;-78
2023/11/18 05:24:32;;;;;;;;;;;12.30;99.90;;;;;;4998615;28;19910;-74
2023/11/18 05:27:01;;;;;;;;;;;12.30;99.90;;;;;;5016708;28;20006;-74
2023/11/18 05:29:27;;;;;;;;;;;12.30;99.90;;;;;;5016217;28;19928;-74
2023/11/18 05:31:54;;;;;;;;;;;12.30;99.90;;;;;;5016257;28;19957;-78
2023/11/18 05:34:20;;;;;;;;;;;12.30;99.90;;;;;;5016003;28;19956;-79
2023/11/18 05:36:46;;;;;;;;;;;12.30;99.90;;;;;;5016352;28;20000;-75
2023/11/18 05:39:12;;;;;;;;;;;12.30;99.90;;;;;;5015553;28;20020;-74
2023/11/18 05:41:39;;;;;;;;;;;12.30;99.90;;;;;;5015896;28;19917;-78
2023/11/18 05:44:05;;;;;;;;;;;12.30;99.90;;;;;;5015982;28;19910;-74
2023/11/18 05:46:32;;;;;;;;;;;12.30;99.90;;;;;;5015888;28;20377;-79
2023/11/18 05:49:01;;;;;;;;;;;12.30;99.90;;;;;;5015231;28;19960;-78
2023/11/18 05:51:28;;;;;;;;;;;12.30;99.90;;;;;;5015228;28;19921;-74
2023/11/18 05:53:55;;;;;;;;;;;12.30;99.90;;;;;;5014894;28;20284;-74
2023/11/18 05:56:24;;;;;;;;;;;12.30;99.90;;;;;;5007222;28;19916;-74
2023/11/18 05:58:50;;;;;;;;;;;12.30;99.90;;;;;;5007188;28;20299;-79
2023/11/18 06:01:16;;;;;;;;;;;12.30;99.90;;;;;;5018875;28;19913;-74
2023/11/18 06:03:42;;;;;;;;;;;12.30;99.90;;;;;;5015232;28;20296;-78
2023/11/18 06:06:09;;;;;;;;;;;12.30;99.90;;;;;;5014251;28;20408;-74
2023/11/18 06:08:41;;;;;;;;;;;12.30;99.90;;;;;;5015512;28;19910;-78
2023/11/18 06:11:12;;;;;;;;;;;12.30;99.90;;;;;;5015593;28;19913;-74
2023/11/18 06:13:42;;;;;;;;;;;12.30;99.90;;;;;;5015359;28;19909;-80
2023/11/18 06:16:14;;;;;;;;;;;12.20;99.90;;;;;;5013916;28;20308;-74
2023/11/18 06:18:46;;;;;;;;;;;12.20;99.90;;;;;;5015962;28;19913;-75
2023/11/18 06:21:12;;;;;;;;;;;12.20;99.90;;;;;;5013763;28;20296;-74
2023/11/18 06:23:38;;;;;;;;;;;12.10;99.90;;;;;;5015109;28;19910;-74
2023/11/18 06:26:04;;;;;;;;;;;12.10;99.90;;;;;;5015206;28;19909;-78
2023/11/18 06:28:30;;;;;;;;;;;12.10;99.90;;;;;;5015199;28;19914;-79
2023/11/18 06:30:55;;;;;;;;;;;12.10;99.90;;;;;;5014895;28;19925;-74
2023/11/18 06:33:23;;;;;;;;;;;12.20;99.90;;;;;;5015151;28;19996;-74
2023/11/18 06:35:49;;;;;;;;;;;12.20;99.90;;;;;;5015100;28;19910;-78
2023/11/18 06:38:15;;;;;;;;;;;12.10;99.90;;;;;;5014677;28;20356;-75
2023/11/18 06:40:40;;;;;;;;;;;12.10;99.90;;;;;;5011557;28;19921;-78
2023/11/18 06:43:10;;;;;;;;;;;12.10;99.90;;;;;;5002650;28;19914;-74
2023/11/18 06:45:37;;;;;;;;;;;12.10;99.90;;;;;;4999630;28;19909;-74
2023/11/18 06:48:06;;;;;;;;;;;12.10;99.90;;;;;;5009395;28;20296;-74
2023/11/18 06:50:31;;;;;;;;;;;12.10;99.90;;;;;;5014711;28;20337;-78
2023/11/18 06:52:58;;;;;;;;;;;12.10;99.90;;;;;;5013610;28;19968;-78
2023/11/18 06:55:26;;;;;;;;;;;12.10;99.90;;;;;;5004884;28;19996;-81
2023/11/18 06:57:52;;;;;;;;;;;12.10;99.90;;;;;;4995188;28;19910;-74
2023/11/18 07:00:17;;;;;;;;;;;12.10;99.90;;;;;;5013440;28;20299;-78
2023/11/18 07:02:43;;;;;;;;;;;12.00;99.90;;;;;;5014358;28;19913;-78
2023/11/18 07:05:09;;;;;;;;;;;12.00;99.90;;;;;;5014764;28;19910;-78
2023/11/18 07:07:34;;;;;;;;;;;12.00;99.90;;;;;;5014446;28;19917;-78
2023/11/18 07:10:00;;;;;;;;;;;12.00;99.90;;;;;;5014403;28;19910;-74
2023/11/18 07:12:25;;;;;;;;;;;12.00;99.90;;;;;;5014757;28;19910;-74
2023/11/18 07:14:51;;;;;;;;;;;12.00;99.90;;;;;;5014183;28;19910;-74
2023/11/18 07:17:18;;;;;;;;;;;12.00;99.90;;;;;;5014364;28;20369;-78
2023/11/18 07:19:44;;;;;;;;;;;11.90;99.90;;;;;;5014070;28;19924;-78
2023/11/18 07:22:10;;;;;;;;;;;12.00;99.90;;;;;;5014127;28;19917;-74
2023/11/18 07:24:36;;;;;;;;;;;12.00;99.90;;;;;;5028870;28;19914;-74
2023/11/18 07:27:03;;;;;;;;;;;12.00;99.90;;;;;;5014186;28;19996;-74
2023/11/18 07:29:28;;;;;;;;;;;12.00;99.90;;;;;;5013848;28;19913;-78
2023/11/18 07:31:56;;;;;;;;;;;12.10;99.90;;;;;;5013939;28;20301;-74
2023/11/18 07:34:23;;;;;;;;;;;12.20;99.90;;;;;;5014022;28;19968;-74
2023/11/18 07:36:49;;;;;;;;;;;12.20;99.90;;;;;;5013912;28;19967;-74
2023/11/18 07:39:15;;;;;;;;;;;12.30;99.90;;;;;;5012393;28;20004;-74
2023/11/18 07:41:41;;;;;;;;;;;12.30;99.90;;;;;;5014107;28;19994;-78
2023/11/18 07:44:10;;;;;;;;;;;12.40;99.90;;;;;;5013838;28;20012;-78
2023/11/18 07:46:38;;;;;;;;;;;12.40;99.90;;;;;;5013896;28;19916;-79
2023/11/18 07:49:03;;;;;;;;;;;12.40;99.90;;;;;;5013895;28;20372;-74
2023/11/18 07:51:29;;;;;;;;;;;12.50;99.90;;;;;;5013655;28;20000;-74
2023/11/18 07:53:55;;;;;;;;;;;12.50;99.90;;;;;;5008639;28;19979;-78
2023/11/18 07:56:22;;;;;;;;;;;12.50;99.90;;;;;;5011291;28;19924;-79
2023/11/18 07:58:47;;;;;;;;;;;12.50;99.90;;;;;;5000965;28;19914;-79
2023/11/18 08:01:15;;;;;;;;;;;12.50;99.90;;;;;;4995531;28;20483;-74
2023/11/18 08:03:41;;;;;;;;;;;12.50;99.90;;;;;;5003164;28;19917;-77
2023/11/18 08:06:07;;;;;;;;;;;12.50;99.90;;;;;;4997553;28;20008;-75
2023/11/18 08:08:33;;;;;;;;;;;12.50;99.90;;;;;;5013522;28;19910;-78
2023/11/18 08:10:59;;;;;;;;;;;12.50;99.90;;;;;;5013712;28;20292;-79
2023/11/18 08:13:25;;;;;;;;;;;12.50;99.90;;;;;;5013386;28;19909;-78
2023/11/18 08:15:52;;;;;;;;;;;12.60;99.90;;;;;;5013242;28;20403;-74
2023/11/18 08:18:17;;;;;;;;;;;12.50;99.90;;;;;;5013899;28;19919;-78
2023/11/18 08:20:43;;;;;;;;;;;12.60;99.90;;;;;;5013140;28;19921;-77
2023/11/18 08:23:09;;;;;;;;;;;12.60;99.90;;;;;;5013437;28;19909;-78
2023/11/18 08:25:35;;;;;;;;;;;12.60;99.90;;;;;;5013416;28;19992;-79
2023/11/18 08:28:01;;;;;;;;;;;12.70;99.90;;;;;;5013422;28;19920;-75
2023/11/18 08:30:27;;;;;;;;;;;12.70;99.90;;;;;;5013207;28;19918;-74
2023/11/18 08:32:52;;;;;;;;;;;12.80;99.90;;;;;;5022114;28;20339;-78
2023/11/18 08:35:18;;;;;;;;;;;12.80;99.90;;;;;;5013407;28;20004;-79
2023/11/18 08:37:44;;;;;;;;;;;12.80;99.90;;;;;;5013357;28;20372;-78
2023/11/18 08:40:16;;;;;;;;;;;12.80;99.90;;;;;;5012976;28;19921;-74
2023/11/18 08:42:47;;;;;;;;;;;12.90;99.90;;;;;;5013463;28;19909;-76
2023/11/18 08:45:29;;;;;;;;;;;12.90;99.90;;;;;;5013265;28;19910;-75
2023/11/18 08:47:59;;;;;;;;;;;12.90;99.90;;;;;;5013075;28;19952;-78
2023/11/18 08:50:25;;;;;;;;;;;12.90;99.90;;;;;;5010722;28;19936;-78
2023/11/18 08:52:57;;;;;;;;;;;12.90;99.90;;;;;;5011937;28;19909;-74
2023/11/18 08:55:33;;;;;;;;;;;13.00;99.90;;;;;;5001235;28;20030;-78
2023/11/18 08:57:59;;;;;;;;;;;13.00;99.90;;;;;;4998715;28;19917;-74
2023/11/18 09:00:46;;;;;;;;;;;13.00;99.90;;;;;;5012648;28;20296;-74
2023/11/18 09:03:24;;;;;;;;;;;13.00;99.90;;;;;;5005397;28;19994;-78
2023/11/18 09:05:57;;;;;;;;;;;13.00;99.90;;;;;;4993319;28;19910;-75
2023/11/18 09:08:26;;;;;;;;;;;13.10;99.90;;;;;;4993321;28;19917;-75
2023/11/18 09:10:55;;;;;;;;;;;13.20;99.90;;;;;;4993479;28;19960;-74
2023/11/18 09:13:28;;;;;;;;;;;13.30;99.90;;;;;;5022777;28;19909;-78
2023/11/18 09:15:59;;;;;;;;;;;13.30;99.90;;;;;;5026817;28;19910;-78
2023/11/18 09:18:27;;;;;;;;;;;13.40;99.90;;;;;;4997291;28;19914;-74
2023/11/18 09:20:54;;;;;;;;;;;13.40;99.90;;;;;;4996223;28;19917;-74
2023/11/18 09:23:21;;;;;;;;;;;13.40;99.90;;;;;;4996814;28;19917;-74
2023/11/18 09:25:46;;;;;;;;;;;13.40;99.90;;;;;;4996702;28;19920;-79
2023/11/18 09:28:14;;;;;;;;;;;13.60;99.90;;;;;;5009761;28;19909;-79
2023/11/18 09:30:49;;;;;;;;;;;13.60;99.90;;;;;;5016067;28;19921;-79
2023/11/18 09:33:25;;;;;;;;;;;13.60;99.90;;;;;;5016109;28;20376;-80
2023/11/18 09:35:59;;;;;;;;;;;13.70;99.90;;;;;;5016022;28;20380;-74
2023/11/18 09:38:35;;;;;;;;;;;13.70;99.90;;;;;;5016269;28;19910;-75
2023/11/18 09:41:03;;;;;;;;;;;13.70;99.90;;;;;;5016252;28;19920;-79
2023/11/18 09:43:46;;;;;;;;;;;13.80;99.90;;;;;;5016284;28;20339;-75
2023/11/18 09:46:16;;;;;;;;;;;13.80;99.90;;;;;;5013526;28;19913;-75
2023/11/18 09:48:42;;;;;;;;;;;13.90;99.90;;;;;;5009689;28;20361;-79
2023/11/18 09:51:08;;;;;;;;;;;13.90;99.90;;;;;;5015983;28;19917;-74
2023/11/18 09:53:40;;;;;;;;;;;13.80;99.90;;;;;;5003101;28;19921;-80
2023/11/18 09:56:18;;;;;;;;;;;13.70;99.90;;;;;;5008222;28;19996;-75
2023/11/18 09:58:54;;;;;;;;;;;13.70;99.90;;;;;;5006699;28;19996;-76
2023/11/18 10:01:21;;;;;;;;;;;13.80;99.90;;;;;;5004436;28;19913;-74
2023/11/18 10:03:48;;;;;;;;;;;13.80;99.90;;;;;;5014665;28;19924;-79
2023/11/18 10:06:15;;;;;;;;;;;13.90;99.90;;;;;;5015777;28;19909;-79
2023/11/18 10:08:45;;;;;;;;;;;14.00;99.90;;;;;;5014586;28;19909;-79
2023/11/18 10:11:13;;;;;;;;;;;14.20;99.90;;;;;;5015511;28;19917;-75
2023/11/18 10:13:40;;;;;;;;;;;14.30;99.90;;;;;;4996078;28;20389;-75
2023/11/18 10:16:09;;;;;;;;;;;14.40;99.90;;;;;;4995802;28;19921;-75
2023/11/18 10:18:36;;;;;;;;;;;14.50;99.90;;;;;;4996306;28;19914;-75
2023/11/18 10:21:04;;;;;;;;;;;14.50;99.90;;;;;;4995209;28;19969;-80
2023/11/18 10:23:33;;;;;;;;;;;14.40;99.90;;;;;;4995853;28;19910;-75
2023/11/18 10:26:00;;;;;;;;;;;14.50;99.90;;;;;;4995328;28;19916;-75
2023/11/18 10:28:29;;;;;;;;;;;14.50;99.90;;;;;;5008361;28;19909;-75
2023/11/18 10:30:57;;;;;;;;;;;14.60;99.90;;;;;;5014569;28;20007;-79
2023/11/18 10:33:30;;;;;;;;;;;14.60;99.90;;;;;;5015019;28;19964;-79
2023/11/18 10:35:56;;;;;;;;;;;14.60;99.90;;;;;;5015067;28;19976;-75
2023/11/18 10:38:25;;;;;;;;;;;14.80;99.90;;;;;;5015003;28;19910;-75
2023/11/18 10:40:55;;;;;;;;;;;14.80;99.90;;;;;;5015032;28;19914;-78
2023/11/18 10:43:28;;;;;;;;;;;14.90;99.90;;;;;;5014891;28;19975;-75
2023/11/18 10:46:16;;;;;;;;;;;15.00;99.90;;;;;;5014659;28;19910;-79
2023/11/18 10:48:41;;;;;;;;;;;14.90;99.90;;;;;;5014568;28;19917;-75
2023/11/18 10:51:08;;;;;;;;;;;15.00;99.90;;;;;;5013490;28;19914;-75
2023/11/18 10:53:37;;;;;;;;;;;15.00;99.90;;;;;;5005588;28;19996;-76
2023/11/18 10:56:05;;;;;;;;;;;15.00;99.90;;;;;;5012044;28;19913;-79
2023/11/18 10:58:40;;;;;;;;;;;15.00;99.90;;;;;;5005365;28;19909;-82
2023/11/18 11:01:11;;;;;;;;;;;15.00;99.90;;;;;;5013429;28;19914;-79
2023/11/18 11:03:52;;;;;;;;;;;14.90;99.90;;;;;;5013844;28;20376;-75
2023/11/18 11:06:18;;;;;;;;;;;14.90;99.90;;;;;;5008316;28;19918;-79
2023/11/18 11:08:43;;;;;;;;;;;14.90;99.90;;;;;;5006579;28;20024;-75
2023/11/18 11:11:16;;;;;;;;;;;15.00;99.90;;;;;;4994762;28;19961;-79
2023/11/18 11:13:42;;;;;;;;;;;15.00;99.90;;;;;;5029494;28;19909;-75
2023/11/18 11:16:10;;;;;;;;;;;15.10;99.90;;;;;;5014259;28;19917;-75
2023/11/18 11:18:38;;;;;;;;;;;15.50;99.90;;;;;;5014770;28;20384;-75
2023/11/18 11:21:15;;;;;;;;;;;15.50;99.90;;;;;;5014354;28;20380;-78
2023/11/18 11:24:00;;;;;;;;;;;15.50;99.90;;;;;;5013387;28;19910;-75
2023/11/18 11:26:38;;;;;;;;;;;15.40;99.90;;;;;;5014533;28;19909;-79
2023/11/18 11:29:09;;;;;;;;;;;15.40;99.90;;;;;;4997324;28;20292;-75
2023/11/18 11:31:38;;;;;;;;;;;15.20;99.90;;;;;;4994272;28;19921;-79
2023/11/18 11:34:07;;;;;;;;;;;15.30;99.90;;;;;;4992988;28;20297;-75
2023/11/18 11:36:42;;;;;;;;;;;15.30;99.90;;;;;;4994426;28;19914;-78
2023/11/18 11:39:14;;;;;;;;;;;15.30;99.90;;;;;;4993554;28;20483;-75
2023/11/18 11:41:43;;;;;;;;;;;15.30;99.90;;;;;;4994471;28;19914;-75
2023/11/18 11:44:09;;;;;;;;;;;15.30;99.90;;;;;;4994571;28;19913;-75
2023/11/18 11:46:37;;;;;;;;;;;15.30;99.90;;;;;;4994236;28;19910;-75
2023/11/18 11:49:12;;;;;;;;;;;15.40;99.90;;;;;;4994714;28;19909;-79
2023/11/18 11:51:44;;;;;;;;;;;15.60;99.90;;;;;;5008912;28;19920;-79
2023/11/18 11:54:16;;;;;;;;;;;15.60;99.90;;;;;;5003234;28;20012;-75
2023/11/18 11:56:43;;;;;;;;;;;15.70;99.90;;;;;;5004192;28;19917;-75
2023/11/18 11:59:11;;;;;;;;;;;15.80;99.90;;;;;;4994066;28;19910;-75
2023/11/18 12:01:37;;;;;;;;;;;15.90;99.90;;;;;;5004743;28;20341;-75
2023/11/18 12:04:20;;;;;;;;;;;15.90;99.90;;;;;;5012761;28;19910;-75
2023/11/18 12:06:47;;;;;;;;;;;16.10;99.90;;;;;;5013625;28;20001;-80
2023/11/18 12:09:19;;;;;;;;;;;16.10;99.90;;;;;;5013517;28;20331;-75
2023/11/18 12:11:48;;;;;;;;;;;16.00;99.90;;;;;;5013351;28;19963;-75
2023/11/18 12:17:00;;;;;;;;;;;16.10;99.90;;;;;;5013319;28;20012;-79
2023/11/18 12:19:36;;;;;;;;;;;16.00;99.90;;;;;;5013321;28;19917;-79
2023/11/18 12:22:12;;;;;;;;;;;16.00;99.90;;;;;;5011948;28;20362;-75
2023/11/18 12:24:39;;;;;;;;;;;15.90;99.90;;;;;;5013251;28;20000;-80
2023/11/18 12:27:10;;;;;;;;;;;16.00;99.90;;;;;;5013314;28;20008;-75
2023/11/18 12:29:42;;;;;;;;;;;16.00;99.90;;;;;;5013309;28;20300;-79
2023/11/18 12:32:12;;;;;;;;;;;16.10;99.90;;;;;;5013234;28;19991;-79
2023/11/18 12:34:53;;;;;;;;;;;16.10;99.90;;;;;;5013164;28;19943;-80
2023/11/18 12:37:38;;;;;;;;;;;16.10;99.90;;;;;;5013230;28;19909;-74
2023/11/18 12:40:17;;;;;;;;;;;16.10;99.90;;;;;;5028221;28;20020;-79
2023/11/18 12:43:05;;;;;;;;;;;16.10;99.90;;;;;;5013298;28;19933;-84
2023/11/18 12:45:53;;;;;;;;;;;16.00;99.90;;;;;;5013354;28;19910;-80
2023/11/18 12:48:26;;;;;;;;;;;16.10;99.90;;;;;;5013135;28;19909;-78
2023/11/18 12:50:54;;;;;;;;;;;16.20;99.90;;;;;;5016637;28;19909;-74
2023/11/18 12:53:20;;;;;;;;;;;16.20;99.90;;;;;;5016708;28;19956;-79
2023/11/18 12:55:48;;;;;;;;;;;16.20;99.90;;;;;;4999285;28;19917;-79
2023/11/18 12:58:13;;;;;;;;;;;16.20;99.90;;;;;;5004044;28;19910;-78
2023/11/18 13:00:43;;;;;;;;;;;16.10;99.90;;;;;;5014463;28;19913;-75
2023/11/18 13:03:10;;;;;;;;;;;16.00;99.90;;;;;;5016537;28;19916;-75
2023/11/18 13:05:36;;;;;;;;;;;16.00;99.90;;;;;;5016725;28;19909;-74
2023/11/18 13:08:03;;;;;;;;;;;15.90;99.90;;;;;;5016503;28;19959;-80
2023/11/18 13:10:28;;;;;;;;;;;15.90;99.90;;;;;;5016005;28;19910;-79
2023/11/18 13:12:54;;;;;;;;;;;15.90;99.90;;;;;;5016417;28;19932;-75
2023/11/18 13:15:20;;;;;;;;;;;16.00;99.90;;;;;;5014974;28;19909;-74
2023/11/18 13:18:02;;;;;;;;;;;16.10;99.90;;;;;;5016382;28;19916;-74
2023/11/18 13:20:28;;;;;;;;;;;16.10;99.90;;;;;;5015600;28;19925;-78
2023/11/18 13:22:55;;;;;;;;;;;16.20;99.90;;;;;;5016463;28;19909;-78
2023/11/18 13:25:25;;;;;;;;;;;16.30;99.90;;;;;;5016402;28;19909;-74
2023/11/18 13:27:51;;;;;;;;;;;16.40;99.90;;;;;;5031489;28;19917;-74
2023/11/18 13:30:18;;;;;;;;;;;16.40;99.90;;;;;;5016043;28;20292;-74
2023/11/18 13:32:43;;;;;;;;;;;16.50;99.90;;;;;;5016624;28;20313;-74
2023/11/18 13:35:13;;;;;;;;;;;16.40;99.90;;;;;;5016279;28;19968;-78
2023/11/18 13:37:41;;;;;;;;;;;16.40;99.90;;;;;;5016133;28;20450;-79
2023/11/18 13:40:07;;;;;;;;;;;16.50;99.90;;;;;;5016005;28;19925;-75
2023/11/18 13:42:35;;;;;;;;;;;16.50;99.90;;;;;;5016243;28;19917;-75
2023/11/18 13:45:21;;;;;;;;;;;16.70;99.90;;;;;;5016276;28;19913;-74
2023/11/18 13:47:52;;;;;;;;;;;16.80;99.90;;;;;;5015878;28;19917;-78
2023/11/18 13:50:19;;;;;;;;;;;16.80;99.90;;;;;;5016197;28;20004;-80
2023/11/18 13:52:44;;;;;;;;;;;16.90;99.90;;;;;;5015992;28;19913;-74
2023/11/18 13:55:16;;;;;;;;;;;16.90;99.90;;;;;;5001532;28;19913;-74
2023/11/18 13:57:45;;;;;;;;;;;17.10;99.90;;;;;;5003088;28;19961;-75
2023/11/18 14:00:15;;;;;;;;;;;17.10;99.90;;;;;;5013434;28;20372;-80
2023/11/18 14:02:41;;;;;;;;;;;17.00;99.90;;;;;;5015065;28;19909;-79
2023/11/18 14:05:16;;;;;;;;;;;17.00;99.90;;;;;;5015730;28;19936;-74
2023/11/18 14:07:43;;;;;;;;;;;16.80;99.90;;;;;;5015719;28;19913;-78
2023/11/18 14:10:12;;;;;;;;;;;16.80;99.90;;;;;;5015536;28;19952;-74
2023/11/18 14:12:57;;;;;;;;;;;16.70;99.90;;;;;;5015412;28;20363;-79
2023/11/18 14:15:23;;;;;;;;;;;16.70;99.90;;;;;;5015385;28;19909;-80
2023/11/18 14:17:52;;;;;;;;;;;16.80;99.90;;;;;;5015671;28;19920;-74
2023/11/18 14:20:19;;;;;;;;;;;16.90;99.90;;;;;;5015204;28;19928;-74
2023/11/18 14:22:45;;;;;;;;;;;16.80;99.90;;;;;;5014443;28;19959;-74
2023/11/18 14:25:12;;;;;;;;;;;16.80;99.90;;;;;;5015338;28;20004;-79